CheckWX is a tool to help pilots better visualize weather data.  It is not intended as a substitute for an official pre-flight weather briefing.

19:29:11 UTC

CYLA METAR
Aupaluk Airport
Aupaluk, Canada
Current

29 mins ago

CYLA 261900Z 06023G29KT 15SM FEW055 BKN096 03/M02 A2971 RMK SC2AC5 SLP064
Observed
May-26 @ 19:00 UTC
Wind
  • 060° at 23 KTS
  • Gusting to 29 KTS
Visibility
15 SM
Flight Rules
VFR
Cloud Levels
  • Few at 5,500' AGL
  • Broken at 9,600' AGL
Temperature
C / 37°F
Dewpoint
-2°C / 28°F
Humidity
70%
Altimeter
29.71" Hg
Pressure
1006.12 hPa
Previous

1 hour ago

CYLA 261800Z 07021G31KT 15SM SCT100 BKN240 05/M02 A2973 RMK AC4CI1 SLP073
Observed
May-26 @ 18:00 UTC
Wind
  • 070° at 21 KTS
  • Gusting to 31 KTS
Visibility
15 SM
Flight Rules
VFR
Cloud Levels
  • Scattered at 10,000' AGL
  • Broken at 24,000' AGL
Temperature
C / 41°F
Dewpoint
-2°C / 28°F
Humidity
61%
Altimeter
29.73" Hg
Pressure
1006.82 hPa
Previous

2 hours ago

CYLA 261700Z 07023G30KT 15SM FEW090 SCT240 05/M02 A2976 RMK AC1CI2 SLP082
Observed
May-26 @ 17:00 UTC
Wind
  • 070° at 23 KTS
  • Gusting to 30 KTS
Visibility
15 SM
Flight Rules
VFR
Cloud Levels
  • Few at 9,000' AGL
  • Scattered at 24,000' AGL
Temperature
C / 41°F
Dewpoint
-2°C / 28°F
Humidity
61%
Altimeter
29.76" Hg
Pressure
1007.82 hPa